createdAt,value
2023-02-05T00:00:51.942Z,11.40
2023-02-05T00:03:56.194Z,9.30
2023-02-05T00:06:41.644Z,6.90
2023-02-05T00:09:46.298Z,6.50
2023-02-05T00:12:41.697Z,7.40
2023-02-05T00:15:54.825Z,7.70
2023-02-05T00:19:00.011Z,6.50
2023-02-05T00:21:58.704Z,6.50
2023-02-05T00:24:55.165Z,6.50
2023-02-05T00:28:07.480Z,6.60
2023-02-05T00:30:54.049Z,6.00
2023-02-05T00:33:55.665Z,6.30
2023-02-05T00:36:44.188Z,7.40
2023-02-05T00:41:07.312Z,7.30
2023-02-05T00:42:46.791Z,7.50
2023-02-05T00:45:20.957Z,7.00
2023-02-05T00:48:10.352Z,7.00
2023-02-05T00:50:48.979Z,5.10
2023-02-05T00:53:39.893Z,5.40
2023-02-05T00:56:13.699Z,5.10
2023-02-05T00:58:52.341Z,7.70
2023-02-05T01:01:31.800Z,5.90
2023-02-05T01:04:13.392Z,4.80
2023-02-05T01:06:49.920Z,6.00
2023-02-05T01:09:26.317Z,5.10
2023-02-05T01:12:01.559Z,5.00
2023-02-05T01:14:40.240Z,4.90
2023-02-05T01:17:14.532Z,5.40
2023-02-05T01:19:59.467Z,4.80
2023-02-05T01:22:39.064Z,4.90
2023-02-05T01:25:10.946Z,5.10
2023-02-05T01:27:43.222Z,5.50
2023-02-05T01:30:20.977Z,4.90
2023-02-05T01:32:58.509Z,5.30
2023-02-05T01:35:34.471Z,7.00
2023-02-05T01:38:18.392Z,5.80
2023-02-05T01:41:16.583Z,6.10
2023-02-05T01:44:29.190Z,6.00
2023-02-05T01:47:04.489Z,6.70
2023-02-05T01:49:53.376Z,5.40
2023-02-05T01:53:00.363Z,5.80
2023-02-05T01:55:55.589Z,7.70
2023-02-05T01:58:35.886Z,8.00
2023-02-05T02:01:23.302Z,6.00
2023-02-05T02:04:04.913Z,6.50
2023-02-05T02:06:54.972Z,6.30
2023-02-05T02:09:40.978Z,6.40
2023-02-05T02:12:16.192Z,6.50
2023-02-05T02:14:54.870Z,7.30
2023-02-05T02:17:36.171Z,7.60
2023-02-05T02:20:21.179Z,7.60
2023-02-05T02:23:50.278Z,7.20
2023-02-05T02:27:11.045Z,6.80
2023-02-05T02:30:11.440Z,8.00
2023-02-05T02:32:52.931Z,10.20
2023-02-05T02:36:07.652Z,8.00
2023-02-05T02:38:57.631Z,8.00
2023-02-05T02:42:10.946Z,7.50
2023-02-05T02:45:08.566Z,7.90
2023-02-05T02:48:10.759Z,8.00
2023-02-05T02:50:58.157Z,7.60
2023-02-05T02:54:01.872Z,9.50
2023-02-05T02:56:44.318Z,8.40
2023-02-05T02:59:50.541Z,8.60
2023-02-05T03:02:46.781Z,7.60
2023-02-05T03:05:26.843Z,7.60
2023-02-05T03:08:24.177Z,7.80
2023-02-05T03:11:40.964Z,8.50
2023-02-05T03:14:18.175Z,9.00
2023-02-05T03:16:57.485Z,9.90
2023-02-05T03:19:43.532Z,10.60
2023-02-05T03:22:16.304Z,11.10
2023-02-05T03:24:49.302Z,9.70
2023-02-05T03:27:32.152Z,10.50
2023-02-05T03:30:13.721Z,13.50
2023-02-05T03:33:12.970Z,14.60
2023-02-05T03:36:22.129Z,14.10
2023-02-05T03:39:35.880Z,16.20
2023-02-05T03:42:34.215Z,13.00
2023-02-05T03:48:51.979Z,11.00
2023-02-05T03:51:50.856Z,12.50
2023-02-05T03:54:32.887Z,12.80
2023-02-05T03:57:41.930Z,14.40
2023-02-05T04:00:28.295Z,13.70
2023-02-05T04:03:23.898Z,13.10
2023-02-05T04:06:15.068Z,14.60
2023-02-05T04:08:59.204Z,15.10
2023-02-05T04:11:51.084Z,14.50
2023-02-05T04:14:33.027Z,12.60
2023-02-05T04:17:23.440Z,13.20
2023-02-05T04:19:54.317Z,14.50
2023-02-05T04:22:38.608Z,17.50
2023-02-05T04:25:42.584Z,17.50
2023-02-05T04:28:54.308Z,17.20
2023-02-05T04:31:27.996Z,18.20
2023-02-05T04:33:59.522Z,17.70
2023-02-05T04:36:47.220Z,17.60
2023-02-05T04:39:26.542Z,17.40
2023-02-05T04:42:08.732Z,17.40
2023-02-05T04:44:59.947Z,17.90
2023-02-05T04:47:57.920Z,18.20
2023-02-05T04:50:31.908Z,19.30
2023-02-05T04:53:17.146Z,16.40
2023-02-05T04:56:07.872Z,17.10
2023-02-05T04:58:41.603Z,14.70
2023-02-05T05:01:35.692Z,16.10
2023-02-05T05:04:12.527Z,16.40
2023-02-05T05:07:13.501Z,16.40
2023-02-05T05:10:17.258Z,14.90
2023-02-05T05:13:04.251Z,15.30
2023-02-05T05:15:37.009Z,15.90
2023-02-05T05:18:23.736Z,16.10
2023-02-05T05:21:17.675Z,17.10
2023-02-05T05:24:05.123Z,16.30
2023-02-05T05:26:46.386Z,16.50
2023-02-05T05:29:19.829Z,16.20
2023-02-05T05:31:54.538Z,16.90
2023-02-05T05:34:26.332Z,15.20
2023-02-05T05:37:01.010Z,16.90
2023-02-05T05:40:11.157Z,15.90
2023-02-05T05:43:09.094Z,17.90
2023-02-05T05:45:49.273Z,17.10
2023-02-05T05:48:26.585Z,18.80
2023-02-05T05:51:01.095Z,15.10
2023-02-05T05:53:57.096Z,14.40
2023-02-05T05:56:56.683Z,12.00
2023-02-05T05:59:51.602Z,13.10
2023-02-05T06:02:39.508Z,11.40
2023-02-05T06:05:23.296Z,12.60
2023-02-05T06:08:07.345Z,12.50
2023-02-05T06:11:05.338Z,14.40
2023-02-05T06:13:58.695Z,13.10
2023-02-05T06:17:07.576Z,12.80
2023-02-05T06:19:49.399Z,13.80
2023-02-05T06:22:27.395Z,14.70
2023-02-05T06:25:11.439Z,16.80
2023-02-05T06:27:59.076Z,17.00
2023-02-05T06:30:45.420Z,19.40
2023-02-05T06:33:17.908Z,19.00
2023-02-05T06:35:54.914Z,19.00
2023-02-05T06:38:27.650Z,19.80
2023-02-05T06:41:29.920Z,22.00
2023-02-05T06:44:05.829Z,23.50
2023-02-05T06:47:14.311Z,24.50
2023-02-05T06:50:00.437Z,27.40
2023-02-05T06:52:49.959Z,27.90
2023-02-05T07:00:01.674Z,28.60
2023-02-05T07:07:19.610Z,26.20
2023-02-05T07:10:12.562Z,26.40
2023-02-05T07:13:05.739Z,25.10
2023-02-05T07:16:00.439Z,20.80
2023-02-05T07:19:03.079Z,20.10
2023-02-05T07:22:08.342Z,21.10
2023-02-05T07:25:12.045Z,19.70
2023-02-05T07:28:30.179Z,18.40
2023-02-05T07:35:39.657Z,21.40
2023-02-05T07:39:05.113Z,21.40
2023-02-05T07:42:02.756Z,22.10
2023-02-05T07:45:03.803Z,20.40
2023-02-05T07:48:06.066Z,21.20
2023-02-05T07:50:55.497Z,17.40
2023-02-05T07:53:40.015Z,18.90
2023-02-05T08:00:10.992Z,23.00
2023-02-05T08:03:35.472Z,21.90
2023-02-05T08:17:10.084Z,17.30
2023-02-05T08:20:23.468Z,17.80
2023-02-05T08:23:24.835Z,20.70
2023-02-05T08:26:36.119Z,18.70
2023-02-05T08:29:32.497Z,28.20
2023-02-05T08:32:13.495Z,23.30
2023-02-05T08:34:51.927Z,19.10
2023-02-05T08:37:39.745Z,24.30
2023-02-05T08:40:15.152Z,14.80
2023-02-05T08:43:08.455Z,13.50
2023-02-05T08:46:33.873Z,14.50
2023-02-05T08:50:00.564Z,14.60
2023-02-05T08:53:15.593Z,14.50
2023-02-05T08:56:06.897Z,15.90
2023-02-05T08:59:04.060Z,17.40
2023-02-05T09:01:52.572Z,19.30
2023-02-05T09:04:39.337Z,14.20
2023-02-05T09:07:54.224Z,14.80
2023-02-05T09:11:06.656Z,15.00
2023-02-05T09:13:43.045Z,18.40
2023-02-05T09:19:51.070Z,15.60
2023-02-05T09:22:30.577Z,30.70
2023-02-05T09:25:40.383Z,16.40
2023-02-05T09:28:48.218Z,14.90
2023-02-05T09:34:30.037Z,15.10
2023-02-05T09:38:08.760Z,15.00
2023-02-05T09:40:59.834Z,14.10
2023-02-05T09:44:25.863Z,14.00
2023-02-05T09:47:55.963Z,17.00
2023-02-05T09:51:10.876Z,16.30
2023-02-05T09:54:43.253Z,15.50
2023-02-05T09:57:42.615Z,16.30
2023-02-05T10:01:23.021Z,18.60
2023-02-05T10:12:09.977Z,20.80
2023-02-05T10:15:47.315Z,16.90
2023-02-05T10:19:19.835Z,15.70
2023-02-05T10:23:27.066Z,13.60
2023-02-05T10:31:43.632Z,14.00
2023-02-05T10:35:50.499Z,13.00
2023-02-05T10:39:55.695Z,12.30
2023-02-05T10:47:09.801Z,12.30
2023-02-05T10:51:05.549Z,10.80
2023-02-05T10:54:17.718Z,11.60
2023-02-05T10:57:20.756Z,11.90
2023-02-05T11:01:18.667Z,12.10
2023-02-05T11:04:13.801Z,12.00
2023-02-05T11:07:13.294Z,15.60
2023-02-05T11:10:07.286Z,12.00
2023-02-05T11:13:28.728Z,12.50
2023-02-05T11:16:40.422Z,13.10
2023-02-05T11:20:21.856Z,13.30
2023-02-05T11:24:36.679Z,14.90
2023-02-05T11:28:39.029Z,14.20
2023-02-05T11:32:12.771Z,12.10
2023-02-05T11:35:40.341Z,12.40
2023-02-05T11:47:56.695Z,10.70
2023-02-05T11:54:48.744Z,11.90
2023-02-05T12:01:50.910Z,10.10
2023-02-05T12:05:16.429Z,7.80
2023-02-05T12:09:14.602Z,11.30
2023-02-05T12:17:26.480Z,14.40
2023-02-05T12:21:17.585Z,16.20
2023-02-05T12:25:18.519Z,16.30
2023-02-05T12:29:59.600Z,18.40
2023-02-05T12:33:35.749Z,17.70
2023-02-05T12:37:36.716Z,20.30
2023-02-05T13:13:19.980Z,20.60
2023-02-05T13:16:16.335Z,23.80
2023-02-05T13:19:30.900Z,22.70
2023-02-05T13:23:00.274Z,22.40
2023-02-05T13:26:25.277Z,21.10
2023-02-05T13:30:05.483Z,18.70
2023-02-05T13:33:21.664Z,13.70
2023-02-05T13:36:21.087Z,17.40
2023-02-05T13:39:34.261Z,18.90
2023-02-05T13:43:25.617Z,16.60
2023-02-05T13:46:54.779Z,16.30
2023-02-05T13:51:02.609Z,18.10
2023-02-05T13:54:31.534Z,18.30
2023-02-05T13:57:53.526Z,19.70
2023-02-05T14:01:04.755Z,22.20
2023-02-05T14:04:50.821Z,19.10
2023-02-05T14:08:20.141Z,17.10
2023-02-05T14:15:28.864Z,15.70
2023-02-05T14:19:35.268Z,16.10
2023-02-05T14:22:21.666Z,14.60
2023-02-05T14:25:33.233Z,14.40
2023-02-05T14:29:30.184Z,12.40
2023-02-05T14:32:31.660Z,13.70
2023-02-05T14:36:20.438Z,13.00
2023-02-05T14:39:25.132Z,13.10
2023-02-05T14:42:48.544Z,11.20
2023-02-05T14:46:14.522Z,12.50
2023-02-05T14:53:24.572Z,14.90
2023-02-05T14:57:12.466Z,15.80
2023-02-05T15:00:50.578Z,16.10
2023-02-05T15:07:37.484Z,18.90
2023-02-05T15:11:12.357Z,16.60
2023-02-05T15:14:42.943Z,15.90
2023-02-05T15:18:07.391Z,14.80
2023-02-05T15:31:04.715Z,19.30
2023-02-05T15:34:19.584Z,21.30
2023-02-05T15:37:53.144Z,24.50
2023-02-05T15:40:45.083Z,24.60
2023-02-05T15:43:31.703Z,23.80
2023-02-05T15:46:25.195Z,22.40
2023-02-05T15:49:32.609Z,25.50
2023-02-05T15:52:43.636Z,31.80
2023-02-05T16:00:02.193Z,51.60
2023-02-05T16:02:59.005Z,57.70
2023-02-05T16:05:40.540Z,65.40
2023-02-05T16:08:21.283Z,68.00
2023-02-05T16:11:42.538Z,73.40
2023-02-05T16:14:47.886Z,78.50
2023-02-05T16:17:56.788Z,87.30
2023-02-05T16:21:18.678Z,86.20
2023-02-05T16:28:24.616Z,67.70
2023-02-05T16:31:44.405Z,49.80
2023-02-05T16:35:07.418Z,49.60
2023-02-05T16:39:32.481Z,40.70
2023-02-05T16:43:22.268Z,39.50
2023-02-05T16:46:56.782Z,45.40
2023-02-05T16:51:34.558Z,49.50
2023-02-05T16:55:00.228Z,46.60
2023-02-05T16:58:08.176Z,48.50
2023-02-05T17:35:23.795Z,62.20
2023-02-05T17:38:57.727Z,61.00
2023-02-05T17:42:46.616Z,50.80
2023-02-05T17:46:21.020Z,50.50
2023-02-05T17:52:31.320Z,49.20
2023-02-05T17:56:09.078Z,48.10
2023-02-05T18:04:26.134Z,51.50
2023-02-05T18:15:26.671Z,53.90
2023-02-05T18:19:08.001Z,58.90
2023-02-05T18:22:35.326Z,63.60
2023-02-05T18:25:59.593Z,60.00
2023-02-05T18:29:23.051Z,63.70
2023-02-05T18:32:36.981Z,76.00
2023-02-05T18:36:30.193Z,99.80
2023-02-05T18:39:59.386Z,103.40
2023-02-05T18:43:26.029Z,97.20
2023-02-05T18:47:44.173Z,99.30
2023-02-05T19:04:32.790Z,113.80
2023-02-05T19:07:46.915Z,118.10
2023-02-05T19:11:04.354Z,112.30
2023-02-05T19:13:48.764Z,103.60
2023-02-05T19:42:49.207Z,112.30
2023-02-05T19:59:01.899Z,135.30
2023-02-05T20:02:20.709Z,139.70
2023-02-05T20:05:08.504Z,152.60
2023-02-05T20:09:27.338Z,156.40
2023-02-05T20:13:18.273Z,176.30
2023-02-05T20:17:05.175Z,170.90
2023-02-05T22:43:31.591Z,219.40
2023-02-05T22:46:51.124Z,206.40
2023-02-05T22:50:16.395Z,213.00
2023-02-05T22:56:44.307Z,222.50
2023-02-05T23:00:01.938Z,219.30
2023-02-05T23:08:03.482Z,195.60
2023-02-05T23:11:34.485Z,184.20
2023-02-05T23:25:44.746Z,174.40
2023-02-05T23:31:57.895Z,176.70
2023-02-05T23:38:50.316Z,159.50
2023-02-05T23:45:54.534Z,138.40
2023-02-05T23:48:44.408Z,125.90
2023-02-05T23:52:01.234Z,128.70
2023-02-05T23:55:29.371Z,124.70
2023-02-05T23:58:14.498Z,117.10
